Time;durP1;ratioP1;P1;durP2;ratioP2;P2;SDS_P1;SDS_P2;PMS_P1;PMS_P2;Temp;Humidity;BMP_temperature;BMP_pressure;BME280_temperature;BME280_humidity;BME280_pressure;Samples;Min_cycle;Max_cycle;Signal;HPM_P1;HPM_P2
2022/05/03 00:00:09;;;;;;;6.47;5.33;;;;;;;;;;5033309;28;20269;-73
2022/05/03 00:02:52;;;;;;;5.33;4.67;;;;;;;;;;5032987;28;20204;-72
2022/05/03 00:05:27;;;;;;;8.03;5.07;;;;;;;;;;5014062;28;20660;-72
2022/05/03 00:07:57;;;;;;;6.63;5.03;;;;;;;;;;5019897;28;20277;-72
2022/05/03 00:10:30;;;;;;;6.90;5.40;;;;;;;;;;5033049;28;20802;-73
2022/05/03 00:13:03;;;;;;;5.93;4.83;;;;;;;;;;5032898;28;20222;-73
2022/05/03 00:15:33;;;;;;;5.13;4.20;;;;;;;;;;5032896;28;20557;-72
2022/05/03 00:18:01;;;;;;;5.27;4.50;;;;;;;;;;5034097;28;20215;-73
2022/05/03 00:20:30;;;;;;;4.60;4.20;;;;;;;;;;5033474;28;20216;-73
2022/05/03 00:23:00;;;;;;;4.73;4.27;;;;;;;;;;5032680;28;20200;-73
2022/05/03 00:25:31;;;;;;;4.50;4.10;;;;;;;;;;5029910;28;20211;-73
2022/05/03 00:28:00;;;;;;;7.27;4.37;;;;;;;;;;5028731;28;20231;-73
2022/05/03 00:30:29;;;;;;;5.87;4.23;;;;;;;;;;5033491;28;20259;-72
2022/05/03 00:32:58;;;;;;;5.57;4.30;;;;;;;;;;5032072;28;20212;-73
2022/05/03 00:35:27;;;;;;;5.50;4.10;;;;;;;;;;5032633;28;20230;-73
2022/05/03 00:37:56;;;;;;;4.97;4.17;;;;;;;;;;5031463;28;20242;-73
2022/05/03 00:40:24;;;;;;;5.27;3.93;;;;;;;;;;5032054;28;20247;-72
2022/05/03 00:43:00;;;;;;;5.30;4.30;;;;;;;;;;5031446;28;20617;-72
2022/05/03 00:45:32;;;;;;;5.93;4.40;;;;;;;;;;5029440;28;20199;-73
2022/05/03 00:48:06;;;;;;;5.07;4.47;;;;;;;;;;5018816;28;20269;-72
2022/05/03 00:50:36;;;;;;;5.47;4.43;;;;;;;;;;5031266;28;20276;-72
2022/05/03 00:53:09;;;;;;;4.63;4.13;;;;;;;;;;5042891;28;20208;-72
2022/05/03 00:55:52;;;;;;;7.57;4.37;;;;;;;;;;5032569;28;21197;-72
2022/05/03 00:58:29;;;;;;;6.10;4.43;;;;;;;;;;5035222;28;20703;-73
2022/05/03 01:00:58;;;;;;;5.07;4.57;;;;;;;;;;5035623;28;20219;-72
2022/05/03 01:03:27;;;;;;;5.97;4.23;;;;;;;;;;5025967;28;20203;-72
2022/05/03 01:06:03;;;;;;;4.47;4.07;;;;;;;;;;5036735;28;20207;-73
2022/05/03 01:08:37;;;;;;;4.80;3.97;;;;;;;;;;5036069;28;20636;-72
2022/05/03 01:11:13;;;;;;;5.93;4.10;;;;;;;;;;5036279;28;20196;-72
2022/05/03 01:13:47;;;;;;;7.90;4.00;;;;;;;;;;5039333;28;20647;-73
2022/05/03 01:16:20;;;;;;;4.30;3.90;;;;;;;;;;5036129;28;20199;-73
2022/05/03 01:18:55;;;;;;;5.43;4.27;;;;;;;;;;5035860;28;20266;-73
2022/05/03 01:21:31;;;;;;;4.37;3.97;;;;;;;;;;5034835;28;20246;-73
2022/05/03 01:24:04;;;;;;;5.20;4.20;;;;;;;;;;5033667;28;20203;-73
2022/05/03 01:26:42;;;;;;;5.07;3.80;;;;;;;;;;5036556;28;20250;-73
2022/05/03 01:29:20;;;;;;;3.90;3.50;;;;;;;;;;5038002;28;20265;-73
2022/05/03 01:31:49;;;;;;;5.03;3.70;;;;;;;;;;5023990;28;20203;-72
2022/05/03 01:34:20;;;;;;;4.17;3.60;;;;;;;;;;5034624;28;20207;-72
2022/05/03 01:36:54;;;;;;;8.23;4.20;;;;;;;;;;5022786;28;20230;-73
2022/05/03 01:39:27;;;;;;;4.97;3.70;;;;;;;;;;5035357;28;20211;-72
2022/05/03 01:41:58;;;;;;;7.10;4.00;;;;;;;;;;5032890;28;20653;-72
2022/05/03 01:44:34;;;;;;;4.00;3.60;;;;;;;;;;5034891;28;20204;-72
2022/05/03 01:47:09;;;;;;;5.20;3.63;;;;;;;;;;5035552;28;20223;-73
2022/05/03 01:52:39;;;;;;;5.30;3.80;;;;;;;;;;5022357;28;20211;-73
2022/05/03 01:55:22;;;;;;;4.23;3.80;;;;;;;;;;5027841;28;20201;-73
2022/05/03 01:57:56;;;;;;;6.33;3.60;;;;;;;;;;5030551;28;20223;-73
2022/05/03 02:00:26;;;;;;;3.83;3.40;;;;;;;;;;5034665;28;20305;-72
2022/05/03 02:02:55;;;;;;;5.37;3.80;;;;;;;;;;5035325;28;20254;-72
2022/05/03 02:05:31;;;;;;;4.40;3.80;;;;;;;;;;5034623;28;20205;-72
2022/05/03 02:08:00;;;;;;;4.10;3.70;;;;;;;;;;5033900;28;20696;-72
2022/05/03 02:10:40;;;;;;;4.30;3.47;;;;;;;;;;5034630;28;20204;-72
2022/05/03 02:13:16;;;;;;;4.73;3.43;;;;;;;;;;5034187;28;20262;-73
2022/05/03 02:15:45;;;;;;;4.27;3.87;;;;;;;;;;5024251;28;20207;-72
2022/05/03 02:18:23;;;;;;;6.73;4.40;;;;;;;;;;5032561;28;20706;-72
2022/05/03 02:21:04;;;;;;;5.43;4.83;;;;;;;;;;5029203;28;20232;-73
2022/05/03 02:23:37;;;;;;;6.40;4.70;;;;;;;;;;5024545;28;20237;-73
2022/05/03 02:26:24;;;;;;;8.63;5.47;;;;;;;;;;5034407;28;20211;-73
2022/05/03 02:28:55;;;;;;;6.07;5.47;;;;;;;;;;5029877;28;20235;-73
2022/05/03 02:31:31;;;;;;;8.10;5.80;;;;;;;;;;5034935;28;20250;-73
2022/05/03 02:34:05;;;;;;;6.53;5.60;;;;;;;;;;5031869;28;20552;-73
2022/05/03 02:36:36;;;;;;;6.37;5.77;;;;;;;;;;5022862;28;20216;-73
2022/05/03 02:39:05;;;;;;;7.63;6.83;;;;;;;;;;5030539;28;20207;-73
2022/05/03 02:41:36;;;;;;;6.50;5.77;;;;;;;;;;5032856;28;20650;-73
2022/05/03 02:44:05;;;;;;;6.63;5.87;;;;;;;;;;5033537;28;20249;-71
2022/05/03 02:46:44;;;;;;;8.97;6.10;;;;;;;;;;5034451;28;20261;-72
2022/05/03 02:49:16;;;;;;;6.50;5.77;;;;;;;;;;5032512;28;20686;-72
2022/05/03 02:51:48;;;;;;;6.20;5.60;;;;;;;;;;5025391;28;20211;-73
2022/05/03 02:54:24;;;;;;;8.90;6.53;;;;;;;;;;5033871;28;20597;-73
2022/05/03 02:56:53;;;;;;;7.50;6.33;;;;;;;;;;5025703;28;20249;-72
2022/05/03 03:01:47;;;;;;;7.83;6.47;;;;;;;;;;5033279;28;20207;-72
2022/05/03 03:02:22;;;;;;;7.30;6.43;;;;;;;;;;5031920;28;20293;-73
2022/05/03 03:04:54;;;;;;;8.13;6.00;;;;;;;;;;5034398;28;20213;-72
2022/05/03 03:07:23;;;;;;;7.93;6.50;;;;;;;;;;5033437;28;20284;-72
2022/05/03 03:09:52;;;;;;;7.30;6.40;;;;;;;;;;5033386;28;20210;-72
2022/05/03 03:12:27;;;;;;;7.57;5.97;;;;;;;;;;5045799;28;20238;-72
2022/05/03 03:15:01;;;;;;;8.60;6.40;;;;;;;;;;5014206;28;20666;-72
2022/05/03 03:17:31;;;;;;;7.63;6.30;;;;;;;;;;5029030;28;20229;-73
2022/05/03 03:20:07;;;;;;;6.23;5.43;;;;;;;;;;5033392;28;20248;-73
2022/05/03 03:22:39;;;;;;;9.43;5.80;;;;;;;;;;5043099;28;20213;-72
2022/05/03 03:25:08;;;;;;;8.27;6.27;;;;;;;;;;5033304;28;20207;-73
2022/05/03 03:27:38;;;;;;;8.17;5.67;;;;;;;;;;5032504;28;20617;-72
2022/05/03 03:30:07;;;;;;;6.93;5.80;;;;;;;;;;5027493;28;20726;-72
2022/05/03 03:32:38;;;;;;;6.27;5.67;;;;;;;;;;5032987;28;20225;-73
2022/05/03 03:35:07;;;;;;;6.40;5.80;;;;;;;;;;5032363;28;20237;-72
2022/05/03 03:37:36;;;;;;;7.90;6.07;;;;;;;;;;5032936;28;20222;-72
2022/05/03 03:40:05;;;;;;;9.07;6.20;;;;;;;;;;5026392;28;20259;-73
2022/05/03 03:42:34;;;;;;;10.00;6.30;;;;;;;;;;5032386;28;20703;-73
2022/05/03 03:45:02;;;;;;;8.00;6.30;;;;;;;;;;5033460;28;20205;-73
2022/05/03 03:47:31;;;;;;;9.20;6.27;;;;;;;;;;5032421;28;20252;-73
2022/05/03 03:50:01;;;;;;;6.73;6.13;;;;;;;;;;5033109;28;20255;-73
2022/05/03 03:52:29;;;;;;;8.33;6.30;;;;;;;;;;5031934;28;20644;-73
2022/05/03 03:54:57;;;;;;;9.03;6.53;;;;;;;;;;5032757;28;20251;-72
2022/05/03 03:57:31;;;;;;;7.83;6.57;;;;;;;;;;5032850;28;20260;-72
2022/05/03 04:00:00;;;;;;;7.27;6.00;;;;;;;;;;5032866;28;20266;-72
2022/05/03 04:02:28;;;;;;;7.10;6.40;;;;;;;;;;5029358;28;20225;-72
2022/05/03 04:04:57;;;;;;;8.63;6.23;;;;;;;;;;5033468;28;20215;-73
2022/05/03 04:07:27;;;;;;;6.80;6.07;;;;;;;;;;5019876;28;20229;-73
2022/05/03 04:09:55;;;;;;;7.27;6.43;;;;;;;;;;5032323;28;20268;-72
2022/05/03 04:12:24;;;;;;;9.77;6.33;;;;;;;;;;5032638;28;20251;-72
2022/05/03 04:14:53;;;;;;;8.97;6.37;;;;;;;;;;5019110;28;20206;-72
2022/05/03 04:17:21;;;;;;;7.43;6.23;;;;;;;;;;5022885;28;20227;-72
2022/05/03 04:19:50;;;;;;;8.53;5.80;;;;;;;;;;5033077;28;20211;-73
2022/05/03 04:22:28;;;;;;;6.97;6.07;;;;;;;;;;5030938;28;20306;-72
2022/05/03 04:24:56;;;;;;;7.47;5.80;;;;;;;;;;5025238;28;20204;-72
2022/05/03 04:27:26;;;;;;;7.20;5.60;;;;;;;;;;5030402;28;20229;-72
2022/05/03 04:29:55;;;;;;;8.17;6.30;;;;;;;;;;5028360;28;20605;-73
2022/05/03 04:32:23;;;;;;;6.10;5.50;;;;;;;;;;5033660;28;20207;-73
2022/05/03 04:34:52;;;;;;;7.67;5.27;;;;;;;;;;5028342;28;20612;-73
2022/05/03 04:37:20;;;;;;;8.73;5.90;;;;;;;;;;5034218;28;20227;-73
2022/05/03 04:39:50;;;;;;;11.53;5.57;;;;;;;;;;5034198;28;20204;-73
2022/05/03 04:42:20;;;;;;;8.37;5.17;;;;;;;;;;5034139;28;20230;-72
2022/05/03 04:44:48;;;;;;;7.53;5.60;;;;;;;;;;5035050;28;20732;-72
2022/05/03 04:47:17;;;;;;;6.93;5.40;;;;;;;;;;5034714;28;20219;-73
2022/05/03 04:49:46;;;;;;;6.53;5.53;;;;;;;;;;5034000;28;20207;-72
2022/05/03 04:52:15;;;;;;;7.40;5.33;;;;;;;;;;5032432;28;20287;-72
2022/05/03 04:54:44;;;;;;;7.07;5.37;;;;;;;;;;5037330;28;20250;-72
2022/05/03 04:57:16;;;;;;;6.63;5.93;;;;;;;;;;5039642;28;20224;-72
2022/05/03 04:59:45;;;;;;;6.80;5.87;;;;;;;;;;5034904;28;20291;-72
2022/05/03 05:02:14;;;;;;;12.33;5.83;;;;;;;;;;5035839;28;20694;-73
2022/05/03 05:04:42;;;;;;;7.03;5.50;;;;;;;;;;5025200;28;20213;-72
2022/05/03 05:07:11;;;;;;;7.73;5.83;;;;;;;;;;5016929;28;20231;-72
2022/05/03 05:10:23;;;;;;;8.63;5.80;;;;;;;;;;5033931;28;20198;-73
2022/05/03 05:12:31;;;;;;;9.03;5.87;;;;;;;;;;5032483;28;20200;-72
2022/05/03 05:14:59;;;;;;;8.37;5.50;;;;;;;;;;5030673;28;20198;-73
2022/05/03 05:17:28;;;;;;;10.30;5.73;;;;;;;;;;5025789;28;20277;-73
2022/05/03 05:19:56;;;;;;;8.47;5.60;;;;;;;;;;5029109;28;20206;-73
2022/05/03 05:22:25;;;;;;;7.20;5.70;;;;;;;;;;5035761;28;20235;-73
2022/05/03 05:24:53;;;;;;;6.17;5.20;;;;;;;;;;5035803;28;20207;-72
2022/05/03 05:27:21;;;;;;;6.30;5.40;;;;;;;;;;5036154;28;20264;-73
2022/05/03 05:29:51;;;;;;;7.57;5.53;;;;;;;;;;5032130;28;20697;-73
2022/05/03 05:32:20;;;;;;;8.20;5.17;;;;;;;;;;5035749;28;20199;-72
2022/05/03 05:34:49;;;;;;;6.07;5.20;;;;;;;;;;5035279;28;20294;-72
2022/05/03 05:37:17;;;;;;;7.63;5.50;;;;;;;;;;5034877;28;20570;-73
2022/05/03 05:39:45;;;;;;;7.37;4.90;;;;;;;;;;5027783;28;20738;-72
2022/05/03 05:42:14;;;;;;;7.37;4.90;;;;;;;;;;5034257;28;20320;-73
2022/05/03 05:44:43;;;;;;;6.07;4.80;;;;;;;;;;5036018;28;20204;-73
2022/05/03 05:47:13;;;;;;;9.20;5.00;;;;;;;;;;5035550;28;20228;-73
2022/05/03 05:49:42;;;;;;;6.40;4.47;;;;;;;;;;5034525;28;20203;-73
2022/05/03 05:54:56;;;;;;;6.47;4.70;;;;;;;;;;5034281;28;20211;-73
2022/05/03 05:57:24;;;;;;;7.57;4.40;;;;;;;;;;5033835;28;20232;-73
2022/05/03 05:59:53;;;;;;;9.40;4.73;;;;;;;;;;5016210;28;20343;-73
2022/05/03 06:02:22;;;;;;;6.13;4.27;;;;;;;;;;5024897;28;20220;-73
2022/05/03 06:04:51;;;;;;;5.33;4.50;;;;;;;;;;5035397;28;20619;-73
2022/05/03 06:07:22;;;;;;;6.87;4.40;;;;;;;;;;5033954;28;20224;-72
2022/05/03 06:09:51;;;;;;;5.57;3.73;;;;;;;;;;5033019;28;20211;-73
2022/05/03 06:12:21;;;;;;;4.60;4.17;;;;;;;;;;5033984;28;20200;-73
2022/05/03 06:14:49;;;;;;;5.60;3.70;;;;;;;;;;5015883;28;20255;-72
2022/05/03 06:17:17;;;;;;;4.50;4.10;;;;;;;;;;5016447;28;20638;-73
2022/05/03 06:19:47;;;;;;;5.80;4.10;;;;;;;;;;5035223;28;20216;-72
2022/05/03 06:22:16;;;;;;;5.40;3.70;;;;;;;;;;5035222;28;20247;-73
2022/05/03 06:24:46;;;;;;;4.40;4.00;;;;;;;;;;5034778;28;20261;-72
2022/05/03 06:27:14;;;;;;;4.47;3.70;;;;;;;;;;5033585;28;20224;-73
2022/05/03 06:29:42;;;;;;;5.50;3.90;;;;;;;;;;5034754;28;20258;-73
2022/05/03 06:32:12;;;;;;;4.23;3.80;;;;;;;;;;5034956;28;20588;-73
2022/05/03 06:34:41;;;;;;;5.13;3.80;;;;;;;;;;5034168;28;20222;-73
2022/05/03 06:37:10;;;;;;;3.63;3.33;;;;;;;;;;5035036;28;20555;-73
2022/05/03 06:39:39;;;;;;;4.80;3.13;;;;;;;;;;5036990;28;20289;-74
2022/05/03 06:42:08;;;;;;;4.70;3.50;;;;;;;;;;5036471;28;20211;-73
2022/05/03 06:44:37;;;;;;;5.67;3.70;;;;;;;;;;5034338;28;20261;-73
2022/05/03 06:47:06;;;;;;;4.87;4.00;;;;;;;;;;5034165;28;20230;-74
2022/05/03 06:49:35;;;;;;;4.23;3.83;;;;;;;;;;5032568;28;20203;-73
2022/05/03 06:52:03;;;;;;;5.40;4.10;;;;;;;;;;5034838;28;20659;-73
2022/05/03 06:54:33;;;;;;;3.33;3.03;;;;;;;;;;5033196;28;20206;-73
2022/05/03 06:57:01;;;;;;;3.83;3.43;;;;;;;;;;5034695;28;20220;-73
2022/05/03 06:59:30;;;;;;;3.87;3.13;;;;;;;;;;5034484;28;20208;-73
2022/05/03 07:01:59;;;;;;;3.50;3.20;;;;;;;;;;5034621;28;20239;-72
2022/05/03 07:04:27;;;;;;;2.80;2.60;;;;;;;;;;5033730;28;20222;-73
2022/05/03 07:06:56;;;;;;;4.43;3.10;;;;;;;;;;5034766;28;20250;-73
2022/05/03 07:09:24;;;;;;;5.93;2.67;;;;;;;;;;5034054;28;20250;-72
2022/05/03 07:11:54;;;;;;;5.20;2.80;;;;;;;;;;5033223;28;20612;-73
2022/05/03 07:14:22;;;;;;;2.90;2.70;;;;;;;;;;5033553;28;20238;-72
2022/05/03 07:16:51;;;;;;;3.50;2.67;;;;;;;;;;5033949;28;20285;-73
2022/05/03 07:24:54;;;;;;;2.60;2.40;;;;;;;;;;5025182;28;20254;-73
2022/05/03 07:27:24;;;;;;;2.90;2.70;;;;;;;;;;5034300;28;20231;-73
2022/05/03 07:29:52;;;;;;;3.10;2.80;;;;;;;;;;5030140;28;20275;-74
2022/05/03 07:32:21;;;;;;;3.30;3.00;;;;;;;;;;5033385;28;20200;-74
2022/05/03 07:34:49;;;;;;;2.73;2.20;;;;;;;;;;5021326;28;20212;-73
2022/05/03 07:37:18;;;;;;;2.80;2.40;;;;;;;;;;5027665;28;20224;-73
2022/05/03 07:39:46;;;;;;;3.90;2.40;;;;;;;;;;5034480;28;20207;-74
2022/05/03 07:42:15;;;;;;;2.57;2.33;;;;;;;;;;5033774;28;20675;-72
2022/05/03 07:44:45;;;;;;;2.97;2.70;;;;;;;;;;5032576;28;20231;-72
2022/05/03 07:47:13;;;;;;;2.60;2.40;;;;;;;;;;5032659;28;20227;-73
2022/05/03 07:49:43;;;;;;;2.07;1.87;;;;;;;;;;5032783;28;20235;-74
2022/05/03 07:52:11;;;;;;;3.30;1.90;;;;;;;;;;5033001;28;20212;-73
2022/05/03 07:54:41;;;;;;;3.57;2.00;;;;;;;;;;5031107;28;20576;-73
2022/05/03 07:57:12;;;;;;;2.33;2.10;;;;;;;;;;5032834;28;20274;-72
2022/05/03 07:59:40;;;;;;;2.60;2.10;;;;;;;;;;5012861;28;20600;-72
2022/05/03 08:02:11;;;;;;;3.00;2.30;;;;;;;;;;5013255;28;20204;-72
2022/05/03 08:04:40;;;;;;;3.60;2.17;;;;;;;;;;5031900;28;20254;-72
2022/05/03 08:07:08;;;;;;;3.03;2.10;;;;;;;;;;5032312;28;20228;-73
2022/05/03 08:09:37;;;;;;;5.03;2.60;;;;;;;;;;5032343;28;20214;-73
2022/05/03 08:12:06;;;;;;;2.60;2.40;;;;;;;;;;5030285;28;20200;-74
2022/05/03 08:14:34;;;;;;;3.93;2.80;;;;;;;;;;5031660;28;20200;-73
2022/05/03 08:17:03;;;;;;;4.17;3.50;;;;;;;;;;5032303;28;20701;-73
2022/05/03 08:19:33;;;;;;;4.63;3.57;;;;;;;;;;5032683;28;20207;-73
2022/05/03 08:22:01;;;;;;;4.20;3.73;;;;;;;;;;5032542;28;20226;-73
2022/05/03 08:24:30;;;;;;;4.20;3.80;;;;;;;;;;5032269;28;20227;-73
2022/05/03 08:26:59;;;;;;;3.97;3.57;;;;;;;;;;5032278;28;20582;-72
2022/05/03 08:29:29;;;;;;;4.60;4.10;;;;;;;;;;5032263;28;20218;-74
2022/05/03 08:31:57;;;;;;;3.83;3.47;;;;;;;;;;5032781;28;20215;-75
2022/05/03 08:34:26;;;;;;;4.83;3.20;;;;;;;;;;4995068;28;1082546;-72
2022/05/03 08:42:29;;;;;;;3.90;3.50;;;;;;;;;;5015901;28;20659;-73
2022/05/03 08:44:57;;;;;;;4.63;4.00;;;;;;;;;;5033081;28;20227;-72
2022/05/03 08:47:27;;;;;;;4.30;3.65;;;;;;;;;;5030036;28;20215;-73
2022/05/03 08:49:58;;;;;;;3.92;3.42;;;;;;;;;;5031560;28;20211;-73
2022/05/03 08:52:28;;;;;;;3.90;3.50;;;;;;;;;;5033404;28;20195;-73
2022/05/03 08:54:57;;;;;;;5.20;3.47;;;;;;;;;;5031423;28;20207;-73
2022/05/03 08:57:28;;;;;;;4.03;3.70;;;;;;;;;;5032291;28;20227;-73
2022/05/03 08:59:57;;;;;;;3.83;3.42;;;;;;;;;;5032769;28;20253;-72
2022/05/03 09:02:26;;;;;;;4.75;3.53;;;;;;;;;;5032346;28;20200;-72
2022/05/03 09:04:54;;;;;;;5.10;4.07;;;;;;;;;;5032822;28;20228;-73
2022/05/03 09:07:24;;;;;;;4.00;3.60;;;;;;;;;;5032763;28;20224;-73
2022/05/03 09:09:54;;;;;;;4.70;3.40;;;;;;;;;;5033123;28;20215;-73
2022/05/03 09:12:24;;;;;;;6.07;3.63;;;;;;;;;;5032600;28;20204;-73
2022/05/03 09:14:53;;;;;;;5.15;4.18;;;;;;;;;;5032887;28;20203;-73
2022/05/03 09:17:39;;;;;;;3.92;3.63;;;;;;;;;;5032270;28;20277;-72
2022/05/03 09:25:51;;;;;;;4.05;3.70;;;;;;;;;;5028729;28;20215;-72
2022/05/03 09:28:21;;;;;;;5.28;4.40;;;;;;;;;;5035570;28;20216;-73
2022/05/03 09:30:51;;;;;;;4.95;4.45;;;;;;;;;;5036232;28;20273;-73
2022/05/03 09:33:20;;;;;;;6.43;4.45;;;;;;;;;;5035508;28;20265;-71
2022/05/03 09:35:49;;;;;;;4.80;4.40;;;;;;;;;;5036094;28;20596;-73
2022/05/03 09:38:17;;;;;;;4.90;4.45;;;;;;;;;;5035971;28;20232;-73
2022/05/03 09:40:46;;;;;;;5.20;4.70;;;;;;;;;;5036232;28;20606;-72
2022/05/03 09:43:17;;;;;;;5.53;4.90;;;;;;;;;;5035479;28;20245;-73
2022/05/03 09:45:45;;;;;;;6.28;4.60;;;;;;;;;;5031199;28;20224;-72
2022/05/03 09:48:14;;;;;;;5.78;4.80;;;;;;;;;;5024497;28;20263;-74
2022/05/03 09:50:44;;;;;;;5.13;4.30;;;;;;;;;;5016350;28;20208;-72
2022/05/03 09:53:17;;;;;;;5.82;4.72;;;;;;;;;;5024521;28;20222;-73
2022/05/03 09:55:48;;;;;;;5.35;4.85;;;;;;;;;;5035685;28;20188;-73
2022/05/03 09:58:19;;;;;;;5.55;5.05;;;;;;;;;;5034969;28;20586;-72
2022/05/03 10:00:48;;;;;;;5.75;4.97;;;;;;;;;;5035856;28;20218;-72
2022/05/03 10:03:17;;;;;;;6.00;5.47;;;;;;;;;;5034978;28;20204;-72
2022/05/03 10:05:50;;;;;;;6.40;5.20;;;;;;;;;;5034779;28;20220;-72
2022/05/03 10:08:20;;;;;;;6.30;5.40;;;;;;;;;;5034828;28;20220;-73
2022/05/03 10:10:56;;;;;;;5.95;5.35;;;;;;;;;;5035089;28;20212;-73
2022/05/03 10:13:27;;;;;;;5.95;5.22;;;;;;;;;;5034686;28;20203;-73
2022/05/03 10:21:33;;;;;;;5.95;5.45;;;;;;;;;;5035663;28;20196;-73
2022/05/03 10:24:02;;;;;;;7.18;6.47;;;;;;;;;;5034929;28;20204;-73
2022/05/03 10:26:45;;;;;;;7.53;6.43;;;;;;;;;;5035447;28;20215;-72
2022/05/03 10:29:16;;;;;;;8.57;6.70;;;;;;;;;;5033156;28;20207;-71
2022/05/03 10:31:54;;;;;;;7.28;6.32;;;;;;;;;;5035037;28;20697;-74
2022/05/03 10:34:43;;;;;;;7.70;6.90;;;;;;;;;;5034339;28;20203;-74
2022/05/03 10:37:13;;;;;;;7.20;6.50;;;;;;;;;;5035057;28;20219;-73
2022/05/03 10:39:54;;;;;;;8.10;6.63;;;;;;;;;;5031112;28;20204;-74
2022/05/03 10:42:24;;;;;;;7.07;6.28;;;;;;;;;;5034918;28;20251;-74
2022/05/03 10:45:03;;;;;;;6.95;6.25;;;;;;;;;;5023607;28;20216;-72
2022/05/03 10:47:42;;;;;;;7.30;6.55;;;;;;;;;;5032488;28;20227;-74
2022/05/03 10:50:20;;;;;;;7.07;6.32;;;;;;;;;;5030564;28;20265;-73
2022/05/03 10:53:05;;;;;;;7.45;6.50;;;;;;;;;;5034584;28;20258;-74
2022/05/03 10:55:35;;;;;;;6.50;5.90;;;;;;;;;;5033365;28;20234;-74
2022/05/03 10:58:20;;;;;;;8.52;7.28;;;;;;;;;;5034211;28;20270;-72
2022/05/03 11:01:03;;;;;;;8.23;7.43;;;;;;;;;;5027073;28;20203;-72
2022/05/03 11:03:32;;;;;;;7.28;6.57;;;;;;;;;;5033795;28;20709;-73
2022/05/03 11:06:19;;;;;;;8.75;7.10;;;;;;;;;;5034182;28;20638;-72
2022/05/03 11:09:08;;;;;;;7.05;6.30;;;;;;;;;;5034338;28;20224;-71
2022/05/03 11:11:53;;;;;;;6.57;5.80;;;;;;;;;;5034442;28;20215;-72
2022/05/03 11:14:36;;;;;;;7.05;6.35;;;;;;;;;;5033410;28;20207;-71
2022/05/03 11:17:11;;;;;;;6.50;5.90;;;;;;;;;;5033741;28;20789;-72
2022/05/03 11:19:41;;;;;;;6.50;5.90;;;;;;;;;;5014245;28;20568;-72
2022/05/03 11:22:11;;;;;;;6.80;6.10;;;;;;;;;;5031503;28;20212;-73
2022/05/03 11:24:42;;;;;;;7.18;6.47;;;;;;;;;;5032827;28;20223;-73
2022/05/03 11:27:11;;;;;;;7.20;6.38;;;;;;;;;;5034346;28;20285;-72
2022/05/03 11:29:41;;;;;;;7.95;7.15;;;;;;;;;;5033757;28;20204;-73
2022/05/03 11:32:11;;;;;;;7.43;6.47;;;;;;;;;;5034082;28;20757;-73
2022/05/03 11:34:39;;;;;;;7.15;6.45;;;;;;;;;;5032228;28;20265;-74
2022/05/03 11:37:08;;;;;;;7.45;6.75;;;;;;;;;;5034091;28;20228;-73
2022/05/03 11:39:37;;;;;;;7.22;6.53;;;;;;;;;;5033904;28;20203;-74
2022/05/03 11:42:06;;;;;;;7.18;6.47;;;;;;;;;;5033607;28;20208;-74
2022/05/03 11:44:35;;;;;;;8.57;6.55;;;;;;;;;;5033196;28;20207;-74
2022/05/03 11:47:04;;;;;;;6.80;6.20;;;;;;;;;;5034114;28;20220;-73
2022/05/03 11:49:36;;;;;;;6.28;5.68;;;;;;;;;;5033648;28;20215;-73
2022/05/03 11:57:40;;;;;;;6.80;5.20;;;;;;;;;;5033554;28;20219;-73
2022/05/03 12:00:12;;;;;;;6.00;5.45;;;;;;;;;;5029121;28;20219;-73
2022/05/03 12:02:42;;;;;;;7.90;7.10;;;;;;;;;;5032672;28;20235;-73
2022/05/03 12:05:17;;;;;;;7.78;7.03;;;;;;;;;;5029112;28;20258;-73
2022/05/03 12:07:47;;;;;;;7.57;6.78;;;;;;;;;;5032222;28;20343;-75
2022/05/03 12:10:18;;;;;;;10.13;7.72;;;;;;;;;;5035804;28;20203;-73
2022/05/03 12:12:46;;;;;;;7.75;7.05;;;;;;;;;;5024173;28;20212;-74
2022/05/03 12:15:16;;;;;;;8.52;7.57;;;;;;;;;;5032292;28;20207;-73
2022/05/03 12:17:54;;;;;;;7.25;6.53;;;;;;;;;;5030069;28;20231;-75
2022/05/03 12:20:24;;;;;;;8.25;6.93;;;;;;;;;;5030361;28;20199;-73
2022/05/03 12:23:12;;;;;;;7.95;6.78;;;;;;;;;;5031258;28;20211;-73
2022/05/03 12:25:41;;;;;;;7.10;6.35;;;;;;;;;;5023576;28;20227;-73
2022/05/03 12:28:09;;;;;;;7.30;6.60;;;;;;;;;;5028936;28;20269;-74
2022/05/03 12:30:37;;;;;;;7.07;6.38;;;;;;;;;;5032271;28;20208;-73
2022/05/03 12:33:07;;;;;;;8.23;6.22;;;;;;;;;;5032102;28;20211;-73
2022/05/03 12:35:37;;;;;;;7.05;6.20;;;;;;;;;;5031007;28;20196;-73
2022/05/03 12:38:10;;;;;;;6.78;6.18;;;;;;;;;;5035338;28;20243;-73
2022/05/03 12:40:43;;;;;;;6.57;5.95;;;;;;;;;;5032995;28;20211;-75
2022/05/03 12:43:14;;;;;;;7.63;6.85;;;;;;;;;;5029417;28;20709;-74
2022/05/03 12:45:43;;;;;;;8.10;7.40;;;;;;;;;;5030100;28;20212;-73
2022/05/03 12:48:12;;;;;;;8.38;7.57;;;;;;;;;;5032089;28;20683;-72
2022/05/03 12:50:42;;;;;;;7.88;7.18;;;;;;;;;;5032368;28;20195;-72
2022/05/03 12:53:13;;;;;;;8.75;7.38;;;;;;;;;;5036022;28;20206;-74
2022/05/03 12:55:42;;;;;;;9.15;8.23;;;;;;;;;;5037289;28;20258;-73
2022/05/03 12:58:25;;;;;;;9.82;8.90;;;;;;;;;;4685778;28;9999620;-73
2022/05/03 13:00:54;;;;;;;9.13;8.23;;;;;;;;;;5030646;28;20215;-72
2022/05/03 13:03:23;;;;;;;8.75;7.85;;;;;;;;;;5029048;28;20205;-73
2022/05/03 13:05:54;;;;;;;8.52;7.72;;;;;;;;;;5032977;28;20235;-74
2022/05/03 13:08:22;;;;;;;8.43;7.63;;;;;;;;;;5032880;28;20227;-74
2022/05/03 13:10:50;;;;;;;10.00;8.60;;;;;;;;;;5034011;28;20710;-73
2022/05/03 13:13:19;;;;;;;9.18;8.27;;;;;;;;;;5033310;28;20602;-73
2022/05/03 13:15:47;;;;;;;8.40;7.55;;;;;;;;;;5034401;28;20878;-73
2022/05/03 13:18:16;;;;;;;8.52;7.70;;;;;;;;;;5033752;28;20224;-74
2022/05/03 13:20:44;;;;;;;9.20;8.25;;;;;;;;;;5033887;28;20207;-74
2022/05/03 13:23:15;;;;;;;8.68;7.88;;;;;;;;;;5032903;28;20204;-73
2022/05/03 13:25:44;;;;;;;8.60;7.80;;;;;;;;;;5025567;28;20770;-72
2022/05/03 13:28:12;;;;;;;9.07;8.18;;;;;;;;;;5032663;28;20258;-73
2022/05/03 13:30:41;;;;;;;8.55;7.78;;;;;;;;;;5014213;28;20204;-74
2022/05/03 13:33:09;;;;;;;8.80;7.82;;;;;;;;;;5026902;28;20216;-72
2022/05/03 13:41:11;;;;;;;9.02;8.10;;;;;;;;;;5033850;28;20207;-71
2022/05/03 13:43:40;;;;;;;9.52;8.40;;;;;;;;;;5032548;28;20211;-72
2022/05/03 13:46:08;;;;;;;10.45;8.00;;;;;;;;;;5032627;28;20226;-73
2022/05/03 13:48:37;;;;;;;11.52;7.55;;;;;;;;;;5032179;28;20259;-72
2022/05/03 13:51:06;;;;;;;9.52;8.15;;;;;;;;;;5033220;28;20207;-73
2022/05/03 13:53:35;;;;;;;9.65;8.68;;;;;;;;;;5021402;28;20208;-73
2022/05/03 13:56:04;;;;;;;9.70;8.18;;;;;;;;;;5027004;28;20211;-72
2022/05/03 13:58:33;;;;;;;10.48;8.55;;;;;;;;;;5031828;28;20228;-73
2022/05/03 14:01:01;;;;;;;10.88;8.20;;;;;;;;;;5020456;28;20208;-72
2022/05/03 14:03:43;;;;;;;9.15;8.25;;;;;;;;;;5026216;28;20203;-72
2022/05/03 14:06:11;;;;;;;8.90;8.00;;;;;;;;;;5031936;28;20276;-73
2022/05/03 14:08:41;;;;;;;10.05;8.23;;;;;;;;;;5032726;28;20232;-73
2022/05/03 14:11:10;;;;;;;10.93;8.32;;;;;;;;;;5026929;28;20263;-73
2022/05/03 14:13:38;;;;;;;9.98;8.57;;;;;;;;;;5028253;28;20211;-73
2022/05/03 14:16:06;;;;;;;8.25;7.45;;;;;;;;;;5032585;28;20647;-71
2022/05/03 14:18:35;;;;;;;8.90;8.05;;;;;;;;;;5033194;28;20227;-71
2022/05/03 14:21:04;;;;;;;9.18;7.88;;;;;;;;;;5033848;28;20655;-73
2022/05/03 14:23:32;;;;;;;10.18;8.13;;;;;;;;;;5034285;28;20230;-72
2022/05/03 14:26:02;;;;;;;8.18;7.25;;;;;;;;;;5034687;28;20196;-73
2022/05/03 14:28:32;;;;;;;8.25;7.10;;;;;;;;;;5032065;28;20226;-72
2022/05/03 14:31:01;;;;;;;9.10;7.20;;;;;;;;;;5034678;28;20199;-73
2022/05/03 14:33:29;;;;;;;7.85;6.90;;;;;;;;;;5033117;28;20219;-72
2022/05/03 14:35:58;;;;;;;9.50;7.60;;;;;;;;;;5034595;28;20200;-73
2022/05/03 14:38:26;;;;;;;8.77;7.10;;;;;;;;;;5033687;28;20269;-71
2022/05/03 14:40:55;;;;;;;7.88;7.18;;;;;;;;;;5034915;28;20208;-72
2022/05/03 14:43:24;;;;;;;9.25;7.53;;;;;;;;;;5034703;28;20668;-72
2022/05/03 14:45:53;;;;;;;8.70;6.80;;;;;;;;;;5035384;28;20204;-72
2022/05/03 14:48:21;;;;;;;8.90;7.53;;;;;;;;;;5034078;28;20238;-73
2022/05/03 14:50:49;;;;;;;10.77;6.93;;;;;;;;;;5034468;28;20212;-72
2022/05/03 14:53:18;;;;;;;7.55;6.63;;;;;;;;;;5034142;28;20250;-73
2022/05/03 15:02:52;;;;;;;9.77;6.90;;;;;;;;;;5026994;28;20258;-73
2022/05/03 15:04:18;;;;;;;8.35;6.78;;;;;;;;;;5028710;28;20208;-72
2022/05/03 15:06:47;;;;;;;10.43;7.32;;;;;;;;;;5031839;28;20223;-73
2022/05/03 15:09:15;;;;;;;13.75;7.57;;;;;;;;;;5033102;28;20212;-73
2022/05/03 15:11:44;;;;;;;14.10;6.65;;;;;;;;;;5034610;28;20215;-72
2022/05/03 15:14:18;;;;;;;27.20;7.67;;;;;;;;;;5033731;28;20208;-73
2022/05/03 15:16:47;;;;;;;17.43;7.77;;;;;;;;;;5026178;28;20207;-72
2022/05/03 15:19:18;;;;;;;28.60;8.02;;;;;;;;;;5033047;28;20227;-73
2022/05/03 15:21:46;;;;;;;17.38;7.78;;;;;;;;;;5023247;28;20254;-74
2022/05/03 15:27:02;;;;;;;14.15;6.80;;;;;;;;;;5032857;28;20608;-73
2022/05/03 15:29:32;;;;;;;8.15;6.10;;;;;;;;;;5033111;28;20557;-73
2022/05/03 15:32:19;;;;;;;8.68;6.10;;;;;;;;;;5033985;28;20618;-73
2022/05/03 15:34:47;;;;;;;6.97;6.07;;;;;;;;;;5032961;28;20258;-73
2022/05/03 15:37:16;;;;;;;7.32;6.30;;;;;;;;;;5032460;28;20647;-72
2022/05/03 15:39:44;;;;;;;9.38;6.05;;;;;;;;;;5032068;28;20242;-74
2022/05/03 15:42:13;;;;;;;8.63;6.32;;;;;;;;;;5033534;28;20257;-72
2022/05/03 15:44:43;;;;;;;13.18;6.32;;;;;;;;;;5032743;28;20204;-72
2022/05/03 15:47:11;;;;;;;10.85;6.05;;;;;;;;;;5031191;28;20289;-72
2022/05/03 15:49:40;;;;;;;10.17;6.20;;;;;;;;;;5026770;28;20208;-73
2022/05/03 15:52:08;;;;;;;7.63;6.40;;;;;;;;;;5032147;28;20211;-72